Flight Information

DEPARTURE
CORONA, CA
Elevation:
533
Runways:
7/25 - 3200x60 - ASPH-F
CTAF:
122.700
DESTINATION
VICTORVILLE, CA
Elevation:
2885
TPA:
3885 (est.)
Runways:
17/35 - 15050x150 - ASPH-CONC-G
3/21 - 9138x150 - ASPH-CONC-G
ATIS:
135.475
Tower:
VICTORVILLE TOWER 118.35
Ground:
124.45


43.4 NM14° True-14° Var0° HDG

Flight Plan:
(click to file on line)

1. Type
2. Aircraft Identification
3. Aircraft Type / Special Equipment
4. True Airspeed
kts
5. Departure Airport
(ICAO code)
6. Arriving Airport
(ICAO code)
7. Cruising Altitude
ft
8. Alternate Airport
(ICAO code)
9. Route of Flight
10. Remarks


00:00:00 Departure ATIS: Destination ATIS:

Clearance Limit:
Route:
Altitude: Expect in minutes
Frequency:
Transponder: (7500 Hijack / 7600 Lost Comms / 7700 Emergency)


KAJO 110356Z AUTO 26005KT 10SM CLR 17/11 A2985 RMK AO2 SLP104 T01720111
Time: 2021-04-11T03:56:00Z
1618116969
Winds: 260 @ 5 kts
Visibility: 10.0 sm
Clouds (AGL): CLR
Temperature: 17.2 C
Dew Point: 11.1 C
Pressure: 29.84941 in Hgbr

KGXA 110358Z AUTO 27006KT 10SM CLR 16/M06 A2988 RMK AO2 SLP100 WND DATA ESTMD T01571062
Time: 2021-04-11T03:58:00Z
1618116969
Winds: 270 @ 6 kts
Visibility: 10.0 sm
Clouds (AGL): CLR
Temperature: 15.7 C
Dew Point: -6.2 C
Pressure: 29.878937 in Hgbr


Notes:

Data extracted from FAA Digital Chart Supplement. Effective: 0901Z Thursday, Feb 25, 2021 to 0901Z Thursday, APR 22, 2021
Current ATIS data is provided courtisy of PilotEdge.